sensor_id;sensor_type;location;lat;lon;timestamp;P1;P2;P0
51052;PMS5003;37093;37.716;-122.060;2023-03-16T07:01:10;1;1;
51052;PMS5003;37093;37.716;-122.060;2023-03-16T07:03:40;5;3;
51052;PMS5003;37093;37.716;-122.060;2023-03-16T07:06:08;5;3;
51052;PMS5003;37093;37.716;-122.060;2023-03-16T07:08:36;13;3;
51052;PMS5003;37093;37.716;-122.060;2023-03-16T07:11:05;5;2;
51052;PMS5003;37093;37.716;-122.060;2023-03-16T07:13:34;5;2;
51052;PMS5003;37093;37.716;-122.060;2023-03-16T07:16:02;2;2;
51052;PMS5003;37093;37.716;-122.060;2023-03-16T07:18:31;2;2;
51052;PMS5003;37093;37.716;-122.060;2023-03-16T07:20:59;2;2;
51052;PMS5003;37093;37.716;-122.060;2023-03-16T07:23:28;8;5;
51052;PMS5003;37093;37.716;-122.060;2023-03-16T07:25:57;5;3;
51052;PMS5003;37093;37.716;-122.060;2023-03-16T07:28:25;3;3;
51052;PMS5003;37093;37.716;-122.060;2023-03-16T07:30:54;2;2;
51052;PMS5003;37093;37.716;-122.060;2023-03-16T07:33:22;3;3;
51052;PMS5003;37093;37.716;-122.060;2023-03-16T07:35:51;4;2;
51052;PMS5003;37093;37.716;-122.060;2023-03-16T07:38:19;6;4;
51052;PMS5003;37093;37.716;-122.060;2023-03-16T07:40:48;7;3;
51052;PMS5003;37093;37.716;-122.060;2023-03-16T07:43:17;4;2;
51052;PMS5003;37093;37.716;-122.060;2023-03-16T07:45:47;6;4;
51052;PMS5003;37093;37.716;-122.060;2023-03-16T07:48:16;5;4;
51052;PMS5003;37093;37.716;-122.060;2023-03-16T07:50:46;4;4;
51052;PMS5003;37093;37.716;-122.060;2023-03-16T07:53:15;5;3;
51052;PMS5003;37093;37.716;-122.060;2023-03-16T07:55:43;6;4;
51052;PMS5003;37093;37.716;-122.060;2023-03-16T07:58:12;2;2;
51052;PMS5003;37093;37.716;-122.060;2023-03-16T08:00:40;5;4;
51052;PMS5003;37093;37.716;-122.060;2023-03-16T08:03:10;4;3;
51052;PMS5003;37093;37.716;-122.060;2023-03-16T08:05:38;6;3;
51052;PMS5003;37093;37.716;-122.060;2023-03-16T08:08:06;5;5;
51052;PMS5003;37093;37.716;-122.060;2023-03-16T08:10:35;4;4;
51052;PMS5003;37093;37.716;-122.060;2023-03-16T08:13:03;2;2;
51052;PMS5003;37093;37.716;-122.060;2023-03-16T08:15:32;5;2;
51052;PMS5003;37093;37.716;-122.060;2023-03-16T08:18:01;3;3;
51052;PMS5003;37093;37.716;-122.060;2023-03-16T08:20:29;6;3;
51052;PMS5003;37093;37.716;-122.060;2023-03-16T08:22:58;4;4;
51052;PMS5003;37093;37.716;-122.060;2023-03-16T08:25:27;2;2;
51052;PMS5003;37093;37.716;-122.060;2023-03-16T08:27:55;3;2;
51052;PMS5003;37093;37.716;-122.060;2023-03-16T08:30:24;3;3;
51052;PMS5003;37093;37.716;-122.060;2023-03-16T08:32:52;4;2;
51052;PMS5003;37093;37.716;-122.060;2023-03-16T08:35:21;8;4;
51052;PMS5003;37093;37.716;-122.060;2023-03-16T08:37:49;4;4;
51052;PMS5003;37093;37.716;-122.060;2023-03-16T08:40:18;5;3;
51052;PMS5003;37093;37.716;-122.060;2023-03-16T08:42:47;3;2;
51052;PMS5003;37093;37.716;-122.060;2023-03-16T08:45:15;8;5;
51052;PMS5003;37093;37.716;-122.060;2023-03-16T08:47:44;7;2;
51052;PMS5003;37093;37.716;-122.060;2023-03-16T08:50:13;3;3;
51052;PMS5003;37093;37.716;-122.060;2023-03-16T08:52:41;8;3;
51052;PMS5003;37093;37.716;-122.060;2023-03-16T08:55:10;5;4;
51052;PMS5003;37093;37.716;-122.060;2023-03-16T08:57:38;4;4;
51052;PMS5003;37093;37.716;-122.060;2023-03-16T09:00:07;7;3;
51052;PMS5003;37093;37.716;-122.060;2023-03-16T09:02:36;6;5;
51052;PMS5003;37093;37.716;-122.060;2023-03-16T09:05:07;12;4;
51052;PMS5003;37093;37.716;-122.060;2023-03-16T09:07:36;4;3;
51052;PMS5003;37093;37.716;-122.060;2023-03-16T09:10:07;7;3;
51052;PMS5003;37093;37.716;-122.060;2023-03-16T09:12:37;2;2;
51052;PMS5003;37093;37.716;-122.060;2023-03-16T09:15:05;6;3;
51052;PMS5003;37093;37.716;-122.060;2023-03-16T09:17:35;6;5;
51052;PMS5003;37093;37.716;-122.060;2023-03-16T09:20:04;3;2;
51052;PMS5003;37093;37.716;-122.060;2023-03-16T09:22:34;8;2;
51052;PMS5003;37093;37.716;-122.060;2023-03-16T09:25:03;4;3;
51052;PMS5003;37093;37.716;-122.060;2023-03-16T09:27:32;4;3;
51052;PMS5003;37093;37.716;-122.060;2023-03-16T09:30:00;11;2;
51052;PMS5003;37093;37.716;-122.060;2023-03-16T09:32:30;5;3;
51052;PMS5003;37093;37.716;-122.060;2023-03-16T09:34:58;6;4;
51052;PMS5003;37093;37.716;-122.060;2023-03-16T09:37:27;3;3;
51052;PMS5003;37093;37.716;-122.060;2023-03-16T09:39:55;8;3;
51052;PMS5003;37093;37.716;-122.060;2023-03-16T09:42:26;3;3;
51052;PMS5003;37093;37.716;-122.060;2023-03-16T09:45:13;10;2;
51052;PMS5003;37093;37.716;-122.060;2023-03-16T09:47:49;5;3;
51052;PMS5003;37093;37.716;-122.060;2023-03-16T09:50:24;5;3;
51052;PMS5003;37093;37.716;-122.060;2023-03-16T09:52:59;4;3;
51052;PMS5003;37093;37.716;-122.060;2023-03-16T09:55:31;2;2;
51052;PMS5003;37093;37.716;-122.060;2023-03-16T09:58:03;5;3;
51052;PMS5003;37093;37.716;-122.060;2023-03-16T10:00:38;6;3;
51052;PMS5003;37093;37.716;-122.060;2023-03-16T10:03:16;7;4;
51052;PMS5003;37093;37.716;-122.060;2023-03-16T10:05:58;17;5;
51052;PMS5003;37093;37.716;-122.060;2023-03-16T10:08:29;3;2;
51052;PMS5003;37093;37.716;-122.060;2023-03-16T10:11:07;4;2;
51052;PMS5003;37093;37.716;-122.060;2023-03-16T10:13:46;6;3;
51052;PMS5003;37093;37.716;-122.060;2023-03-16T10:16:18;2;2;
51052;PMS5003;37093;37.716;-122.060;2023-03-16T10:18:56;7;4;
51052;PMS5003;37093;37.716;-122.060;2023-03-16T10:21:27;6;3;
51052;PMS5003;37093;37.716;-122.060;2023-03-16T10:24:02;4;2;
51052;PMS5003;37093;37.716;-122.060;2023-03-16T10:26:39;9;5;
51052;PMS5003;37093;37.716;-122.060;2023-03-16T10:29:15;8;2;
51052;PMS5003;37093;37.716;-122.060;2023-03-16T10:31:43;15;3;
51052;PMS5003;37093;37.716;-122.060;2023-03-16T10:34:12;8;5;
51052;PMS5003;37093;37.716;-122.060;2023-03-16T10:36:41;6;3;
51052;PMS5003;37093;37.716;-122.060;2023-03-16T10:39:11;6;3;
51052;PMS5003;37093;37.716;-122.060;2023-03-16T10:41:41;4;4;
51052;PMS5003;37093;37.716;-122.060;2023-03-16T10:44:11;5;3;
51052;PMS5003;37093;37.716;-122.060;2023-03-16T10:46:41;8;5;
51052;PMS5003;37093;37.716;-122.060;2023-03-16T10:49:21;2;2;
51052;PMS5003;37093;37.716;-122.060;2023-03-16T10:51:51;6;4;
51052;PMS5003;37093;37.716;-122.060;2023-03-16T10:54:23;4;3;
51052;PMS5003;37093;37.716;-122.060;2023-03-16T10:56:57;6;4;
51052;PMS5003;37093;37.716;-122.060;2023-03-16T10:59:27;9;6;
51052;PMS5003;37093;37.716;-122.060;2023-03-16T11:01:57;16;5;
51052;PMS5003;37093;37.716;-122.060;2023-03-16T11:04:30;5;3;
51052;PMS5003;37093;37.716;-122.060;2023-03-16T11:06:59;3;3;
51052;PMS5003;37093;37.716;-122.060;2023-03-16T11:09:30;5;4;
51052;PMS5003;37093;37.716;-122.060;2023-03-16T11:11:59;8;3;
51052;PMS5003;37093;37.716;-122.060;2023-03-16T11:14:42;5;3;
51052;PMS5003;37093;37.716;-122.060;2023-03-16T11:17:11;5;4;
51052;PMS5003;37093;37.716;-122.060;2023-03-16T11:19:46;5;4;
51052;PMS5003;37093;37.716;-122.060;2023-03-16T11:22:19;4;3;
51052;PMS5003;37093;37.716;-122.060;2023-03-16T11:24:49;12;6;
51052;PMS5003;37093;37.716;-122.060;2023-03-16T11:27:23;16;3;
51052;PMS5003;37093;37.716;-122.060;2023-03-16T11:30:00;7;5;
51052;PMS5003;37093;37.716;-122.060;2023-03-16T11:32:38;13;4;
51052;PMS5003;37093;37.716;-122.060;2023-03-16T11:35:12;7;5;
51052;PMS5003;37093;37.716;-122.060;2023-03-16T11:37:47;6;3;
51052;PMS5003;37093;37.716;-122.060;2023-03-16T11:40:30;6;4;
51052;PMS5003;37093;37.716;-122.060;2023-03-16T11:43:12;8;5;
51052;PMS5003;37093;37.716;-122.060;2023-03-16T11:45:57;10;5;
51052;PMS5003;37093;37.716;-122.060;2023-03-16T11:48:36;7;5;
51052;PMS5003;37093;37.716;-122.060;2023-03-16T11:51:10;6;6;
51052;PMS5003;37093;37.716;-122.060;2023-03-16T11:53:48;6;2;
51052;PMS5003;37093;37.716;-122.060;2023-03-16T11:56:29;6;3;
51052;PMS5003;37093;37.716;-122.060;2023-03-16T11:59:04;8;3;
51052;PMS5003;37093;37.716;-122.060;2023-03-16T12:02:00;6;3;
51052;PMS5003;37093;37.716;-122.060;2023-03-16T12:04:47;6;5;
51052;PMS5003;37093;37.716;-122.060;2023-03-16T12:07:28;5;3;
51052;PMS5003;37093;37.716;-122.060;2023-03-16T12:10:15;6;4;
51052;PMS5003;37093;37.716;-122.060;2023-03-16T12:12:54;7;4;
51052;PMS5003;37093;37.716;-122.060;2023-03-16T12:15:37;7;5;
51052;PMS5003;37093;37.716;-122.060;2023-03-16T12:18:11;13;5;
51052;PMS5003;37093;37.716;-122.060;2023-03-16T12:20:46;7;6;
51052;PMS5003;37093;37.716;-122.060;2023-03-16T12:23:20;7;6;
51052;PMS5003;37093;37.716;-122.060;2023-03-16T12:25:55;6;3;
51052;PMS5003;37093;37.716;-122.060;2023-03-16T12:28:27;9;6;
51052;PMS5003;37093;37.716;-122.060;2023-03-16T12:30:59;8;5;
51052;PMS5003;37093;37.716;-122.060;2023-03-16T12:33:41;7;5;
51052;PMS5003;37093;37.716;-122.060;2023-03-16T12:36:40;7;5;
51052;PMS5003;37093;37.716;-122.060;2023-03-16T12:40:23;20;7;
51052;PMS5003;37093;37.716;-122.060;2023-03-16T12:43:03;6;3;
51052;PMS5003;37093;37.716;-122.060;2023-03-16T12:45:41;8;7;
51052;PMS5003;37093;37.716;-122.060;2023-03-16T12:48:17;7;3;
51052;PMS5003;37093;37.716;-122.060;2023-03-16T12:50:53;5;5;
51052;PMS5003;37093;37.716;-122.060;2023-03-16T12:53:25;10;5;
51052;PMS5003;37093;37.716;-122.060;2023-03-16T12:56:04;8;4;
51052;PMS5003;37093;37.716;-122.060;2023-03-16T12:58:34;4;4;
51052;PMS5003;37093;37.716;-122.060;2023-03-16T13:01:09;11;4;
51052;PMS5003;37093;37.716;-122.060;2023-03-16T13:03:40;8;5;
51052;PMS5003;37093;37.716;-122.060;2023-03-16T13:06:15;7;4;
51052;PMS5003;37093;37.716;-122.060;2023-03-16T13:08:50;6;5;
51052;PMS5003;37093;37.716;-122.060;2023-03-16T13:11:22;9;6;
51052;PMS5003;37093;37.716;-122.060;2023-03-16T13:13:52;7;6;
51052;PMS5003;37093;37.716;-122.060;2023-03-16T13:16:34;7;6;
51052;PMS5003;37093;37.716;-122.060;2023-03-16T13:19:16;11;9;
51052;PMS5003;37093;37.716;-122.060;2023-03-16T13:22:02;7;7;
51052;PMS5003;37093;37.716;-122.060;2023-03-16T13:24:49;13;7;
51052;PMS5003;37093;37.716;-122.060;2023-03-16T13:27:20;9;7;
51052;PMS5003;37093;37.716;-122.060;2023-03-16T13:29:54;7;6;
51052;PMS5003;37093;37.716;-122.060;2023-03-16T13:32:29;13;6;
51052;PMS5003;37093;37.716;-122.060;2023-03-16T13:34:59;6;5;
51052;PMS5003;37093;37.716;-122.060;2023-03-16T13:37:30;10;7;
51052;PMS5003;37093;37.716;-122.060;2023-03-16T13:39:59;7;5;
51052;PMS5003;37093;37.716;-122.060;2023-03-16T13:42:29;6;5;
51052;PMS5003;37093;37.716;-122.060;2023-03-16T13:45:04;7;5;
51052;PMS5003;37093;37.716;-122.060;2023-03-16T13:47:41;8;6;
51052;PMS5003;37093;37.716;-122.060;2023-03-16T13:50:11;10;7;
51052;PMS5003;37093;37.716;-122.060;2023-03-16T13:52:40;11;9;
51052;PMS5003;37093;37.716;-122.060;2023-03-16T13:55:13;13;8;
51052;PMS5003;37093;37.716;-122.060;2023-03-16T13:57:44;22;8;
51052;PMS5003;37093;37.716;-122.060;2023-03-16T14:00:15;13;7;
51052;PMS5003;37093;37.716;-122.060;2023-03-16T14:02:47;11;8;
51052;PMS5003;37093;37.716;-122.060;2023-03-16T14:05:21;13;8;
51052;PMS5003;37093;37.716;-122.060;2023-03-16T14:07:51;8;7;
51052;PMS5003;37093;37.716;-122.060;2023-03-16T14:10:22;9;7;
51052;PMS5003;37093;37.716;-122.060;2023-03-16T14:12:55;10;8;
51052;PMS5003;37093;37.716;-122.060;2023-03-16T14:15:24;10;10;
51052;PMS5003;37093;37.716;-122.060;2023-03-16T14:17:53;15;12;
51052;PMS5003;37093;37.716;-122.060;2023-03-16T14:20:39;17;12;
51052;PMS5003;37093;37.716;-122.060;2023-03-16T14:23:13;22;13;
51052;PMS5003;37093;37.716;-122.060;2023-03-16T14:25:45;26;10;
51052;PMS5003;37093;37.716;-122.060;2023-03-16T14:28:15;34;14;
51052;PMS5003;37093;37.716;-122.060;2023-03-16T14:30:53;21;13;
51052;PMS5003;37093;37.716;-122.060;2023-03-16T14:33:30;19;14;
51052;PMS5003;37093;37.716;-122.060;2023-03-16T14:36:06;20;16;
51052;PMS5003;37093;37.716;-122.060;2023-03-16T14:38:38;17;12;
51052;PMS5003;37093;37.716;-122.060;2023-03-16T14:41:13;15;12;
51052;PMS5003;37093;37.716;-122.060;2023-03-16T14:43:48;25;12;
51052;PMS5003;37093;37.716;-122.060;2023-03-16T14:46:23;18;12;
51052;PMS5003;37093;37.716;-122.060;2023-03-16T14:48:58;18;11;
51052;PMS5003;37093;37.716;-122.060;2023-03-16T14:51:28;15;10;
51052;PMS5003;37093;37.716;-122.060;2023-03-16T14:53:57;19;12;
51052;PMS5003;37093;37.716;-122.060;2023-03-16T14:56:30;12;10;
51052;PMS5003;37093;37.716;-122.060;2023-03-16T14:59:00;12;12;
51052;PMS5003;37093;37.716;-122.060;2023-03-16T15:01:28;15;10;
51052;PMS5003;37093;37.716;-122.060;2023-03-16T15:03:57;13;11;
51052;PMS5003;37093;37.716;-122.060;2023-03-16T15:06:25;20;14;
51052;PMS5003;37093;37.716;-122.060;2023-03-16T15:08:53;22;11;
51052;PMS5003;37093;37.716;-122.060;2023-03-16T15:11:22;15;13;
51052;PMS5003;37093;37.716;-122.060;2023-03-16T15:13:50;12;11;
51052;PMS5003;37093;37.716;-122.060;2023-03-16T15:16:19;12;9;
51052;PMS5003;37093;37.716;-122.060;2023-03-16T15:18:47;18;9;
51052;PMS5003;37093;37.716;-122.060;2023-03-16T15:21:17;14;11;
51052;PMS5003;37093;37.716;-122.060;2023-03-16T15:23:48;10;10;
51052;PMS5003;37093;37.716;-122.060;2023-03-16T15:26:18;13;10;
51052;PMS5003;37093;37.716;-122.060;2023-03-16T15:28:49;10;9;
51052;PMS5003;37093;37.716;-122.060;2023-03-16T15:31:18;11;9;
51052;PMS5003;37093;37.716;-122.060;2023-03-16T15:33:47;7;7;
51052;PMS5003;37093;37.716;-122.060;2023-03-16T15:36:16;11;9;
51052;PMS5003;37093;37.716;-122.060;2023-03-16T15:38:46;11;10;
51052;PMS5003;37093;37.716;-122.060;2023-03-16T15:41:17;11;7;
51052;PMS5003;37093;37.716;-122.060;2023-03-16T15:43:46;17;11;
51052;PMS5003;37093;37.716;-122.060;2023-03-16T15:46:15;11;11;
51052;PMS5003;37093;37.716;-122.060;2023-03-16T15:48:43;8;8;
51052;PMS5003;37093;37.716;-122.060;2023-03-16T15:51:14;12;9;
51052;PMS5003;37093;37.716;-122.060;2023-03-16T15:53:48;12;9;
51052;PMS5003;37093;37.716;-122.060;2023-03-16T15:56:20;13;9;
51052;PMS5003;37093;37.716;-122.060;2023-03-16T15:58:51;8;6;
51052;PMS5003;37093;37.716;-122.060;2023-03-16T16:01:21;7;6;
51052;PMS5003;37093;37.716;-122.060;2023-03-16T16:03:51;12;8;
51052;PMS5003;37093;37.716;-122.060;2023-03-16T16:06:20;12;9;
51052;PMS5003;37093;37.716;-122.060;2023-03-16T16:08:48;9;6;
51052;PMS5003;37093;37.716;-122.060;2023-03-16T16:11:18;12;8;
51052;PMS5003;37093;37.716;-122.060;2023-03-16T16:13:50;11;6;
51052;PMS5003;37093;37.716;-122.060;2023-03-16T16:16:20;9;6;
51052;PMS5003;37093;37.716;-122.060;2023-03-16T16:18:48;5;5;
51052;PMS5003;37093;37.716;-122.060;2023-03-16T16:21:18;5;5;
51052;PMS5003;37093;37.716;-122.060;2023-03-16T16:23:49;20;9;
51052;PMS5003;37093;37.716;-122.060;2023-03-16T16:26:21;9;8;
51052;PMS5003;37093;37.716;-122.060;2023-03-16T16:28:53;10;7;
51052;PMS5003;37093;37.716;-122.060;2023-03-16T16:31:22;13;8;
51052;PMS5003;37093;37.716;-122.060;2023-03-16T16:33:51;9;8;
51052;PMS5003;37093;37.716;-122.060;2023-03-16T16:36:19;10;7;
51052;PMS5003;37093;37.716;-122.060;2023-03-16T16:38:49;12;9;
51052;PMS5003;37093;37.716;-122.060;2023-03-16T16:41:20;16;9;
51052;PMS5003;37093;37.716;-122.060;2023-03-16T16:43:52;21;10;
51052;PMS5003;37093;37.716;-122.060;2023-03-16T16:46:22;9;7;
51052;PMS5003;37093;37.716;-122.060;2023-03-16T16:48:53;8;6;
51052;PMS5003;37093;37.716;-122.060;2023-03-16T16:51:26;7;5;
51052;PMS5003;37093;37.716;-122.060;2023-03-16T16:53:57;6;6;
51052;PMS5003;37093;37.716;-122.060;2023-03-16T16:56:26;10;8;
51052;PMS5003;37093;37.716;-122.060;2023-03-16T16:58:57;6;5;
51052;PMS5003;37093;37.716;-122.060;2023-03-16T17:01:29;4;4;
51052;PMS5003;37093;37.716;-122.060;2023-03-16T17:03:58;6;5;
51052;PMS5003;37093;37.716;-122.060;2023-03-16T17:06:27;5;4;
51052;PMS5003;37093;37.716;-122.060;2023-03-16T17:08:56;5;4;
51052;PMS5003;37093;37.716;-122.060;2023-03-16T17:11:25;5;2;
51052;PMS5003;37093;37.716;-122.060;2023-03-16T17:13:57;11;3;
51052;PMS5003;37093;37.716;-122.060;2023-03-16T17:16:27;7;5;
51052;PMS5003;37093;37.716;-122.060;2023-03-16T17:18:57;10;4;
51052;PMS5003;37093;37.716;-122.060;2023-03-16T17:21:27;2;2;
51052;PMS5003;37093;37.716;-122.060;2023-03-16T17:23:57;6;5;
51052;PMS5003;37093;37.716;-122.060;2023-03-16T17:26:26;6;4;
51052;PMS5003;37093;37.716;-122.060;2023-03-16T17:28:58;6;4;
51052;PMS5003;37093;37.716;-122.060;2023-03-16T17:31:31;5;3;
51052;PMS5003;37093;37.716;-122.060;2023-03-16T17:34:02;3;3;
51052;PMS5003;37093;37.716;-122.060;2023-03-16T17:36:40;3;3;
51052;PMS5003;37093;37.716;-122.060;2023-03-16T17:39:11;4;4;
51052;PMS5003;37093;37.716;-122.060;2023-03-16T17:41:44;3;2;
51052;PMS5003;37093;37.716;-122.060;2023-03-16T17:44:13;3;3;
51052;PMS5003;37093;37.716;-122.060;2023-03-16T17:46:41;2;1;
51052;PMS5003;37093;37.716;-122.060;2023-03-16T17:49:11;2;1;
51052;PMS5003;37093;37.716;-122.060;2023-03-16T17:51:40;5;3;
51052;PMS5003;37093;37.716;-122.060;2023-03-16T17:54:09;4;4;
51052;PMS5003;37093;37.716;-122.060;2023-03-16T17:56:38;4;4;
51052;PMS5003;37093;37.716;-122.060;2023-03-16T17:59:11;4;4;
51052;PMS5003;37093;37.716;-122.060;2023-03-16T18:01:43;3;3;
51052;PMS5003;37093;37.716;-122.060;2023-03-16T18:04:14;3;3;
51052;PMS5003;37093;37.716;-122.060;2023-03-16T18:06:43;4;4;
51052;PMS5003;37093;37.716;-122.060;2023-03-16T18:09:11;5;4;
51052;PMS5003;37093;37.716;-122.060;2023-03-16T18:11:40;4;4;
51052;PMS5003;37093;37.716;-122.060;2023-03-16T18:14:18;6;4;
51052;PMS5003;37093;37.716;-122.060;2023-03-16T18:16:50;8;5;
51052;PMS5003;37093;37.716;-122.060;2023-03-16T18:19:20;5;2;
51052;PMS5003;37093;37.716;-122.060;2023-03-16T18:21:50;8;6;
51052;PMS5003;37093;37.716;-122.060;2023-03-16T18:24:19;5;4;
51052;PMS5003;37093;37.716;-122.060;2023-03-16T18:26:47;6;5;
51052;PMS5003;37093;37.716;-122.060;2023-03-16T18:29:15;3;2;
51052;PMS5003;37093;37.716;-122.060;2023-03-16T18:31:44;3;3;
51052;PMS5003;37093;37.716;-122.060;2023-03-16T18:34:20;8;4;
51052;PMS5003;37093;37.716;-122.060;2023-03-16T18:36:50;9;5;
51052;PMS5003;37093;37.716;-122.060;2023-03-16T18:39:19;5;5;
51052;PMS5003;37093;37.716;-122.060;2023-03-16T18:41:48;5;4;
51052;PMS5003;37093;37.716;-122.060;2023-03-16T18:44:17;6;4;
51052;PMS5003;37093;37.716;-122.060;2023-03-16T18:46:47;6;4;
51052;PMS5003;37093;37.716;-122.060;2023-03-16T18:49:17;9;7;
51052;PMS5003;37093;37.716;-122.060;2023-03-16T18:51:49;17;7;
51052;PMS5003;37093;37.716;-122.060;2023-03-16T18:54:19;7;7;
51052;PMS5003;37093;37.716;-122.060;2023-03-16T18:56:50;15;9;
51052;PMS5003;37093;37.716;-122.060;2023-03-16T18:59:19;16;10;
51052;PMS5003;37093;37.716;-122.060;2023-03-16T19:01:47;10;7;
51052;PMS5003;37093;37.716;-122.060;2023-03-16T19:04:18;11;8;
51052;PMS5003;37093;37.716;-122.060;2023-03-16T19:06:48;15;10;
51052;PMS5003;37093;37.716;-122.060;2023-03-16T19:09:18;12;8;
51052;PMS5003;37093;37.716;-122.060;2023-03-16T19:11:48;19;8;
51052;PMS5003;37093;37.716;-122.060;2023-03-16T19:14:18;10;8;
51052;PMS5003;37093;37.716;-122.060;2023-03-16T19:16:47;8;7;
51052;PMS5003;37093;37.716;-122.060;2023-03-16T19:19:16;16;8;
51052;PMS5003;37093;37.716;-122.060;2023-03-16T19:21:45;13;10;
51052;PMS5003;37093;37.716;-122.060;2023-03-16T19:24:17;13;10;
51052;PMS5003;37093;37.716;-122.060;2023-03-16T19:26:50;11;8;
51052;PMS5003;37093;37.716;-122.060;2023-03-16T19:29:26;8;6;
51052;PMS5003;37093;37.716;-122.060;2023-03-16T19:31:58;7;6;
51052;PMS5003;37093;37.716;-122.060;2023-03-16T19:34:27;13;7;
51052;PMS5003;37093;37.716;-122.060;2023-03-16T19:36:55;10;8;
51052;PMS5003;37093;37.716;-122.060;2023-03-16T19:39:23;10;6;
51052;PMS5003;37093;37.716;-122.060;2023-03-16T19:41:53;9;9;
51052;PMS5003;37093;37.716;-122.060;2023-03-16T19:44:24;11;8;
51052;PMS5003;37093;37.716;-122.060;2023-03-16T19:46:54;11;9;
51052;PMS5003;37093;37.716;-122.060;2023-03-16T19:49:23;9;8;
51052;PMS5003;37093;37.716;-122.060;2023-03-16T19:51:53;7;7;
51052;PMS5003;37093;37.716;-122.060;2023-03-16T19:54:23;10;5;
51052;PMS5003;37093;37.716;-122.060;2023-03-16T19:56:53;13;7;
51052;PMS5003;37093;37.716;-122.060;2023-03-16T19:59:25;11;9;
51052;PMS5003;37093;37.716;-122.060;2023-03-16T20:01:58;14;9;
51052;PMS5003;37093;37.716;-122.060;2023-03-16T20:04:27;11;7;
51052;PMS5003;37093;37.716;-122.060;2023-03-16T20:06:56;20;8;
51052;PMS5003;37093;37.716;-122.060;2023-03-16T20:09:24;10;4;
51052;PMS5003;37093;37.716;-122.060;2023-03-16T20:11:52;9;7;
51052;PMS5003;37093;37.716;-122.060;2023-03-16T20:14:24;8;6;
51052;PMS5003;37093;37.716;-122.060;2023-03-16T20:16:57;13;8;
51052;PMS5003;37093;37.716;-122.060;2023-03-16T20:19:25;4;4;
51052;PMS5003;37093;37.716;-122.060;2023-03-16T20:21:53;5;4;
51052;PMS5003;37093;37.716;-122.060;2023-03-16T20:24:22;6;5;
51052;PMS5003;37093;37.716;-122.060;2023-03-16T20:26:50;4;4;
51052;PMS5003;37093;37.716;-122.060;2023-03-16T20:29:20;7;4;
51052;PMS5003;37093;37.716;-122.060;2023-03-16T20:31:53;15;7;
51052;PMS5003;37093;37.716;-122.060;2023-03-16T20:34:22;9;6;
51052;PMS5003;37093;37.716;-122.060;2023-03-16T20:36:52;6;5;
51052;PMS5003;37093;37.716;-122.060;2023-03-16T20:39:22;4;3;
51052;PMS5003;37093;37.716;-122.060;2023-03-16T20:41:50;8;6;
51052;PMS5003;37093;37.716;-122.060;2023-03-16T20:44:19;11;6;
51052;PMS5003;37093;37.716;-122.060;2023-03-16T20:46:48;11;8;
51052;PMS5003;37093;37.716;-122.060;2023-03-16T20:49:26;6;4;
51052;PMS5003;37093;37.716;-122.060;2023-03-16T20:51:56;7;6;
51052;PMS5003;37093;37.716;-122.060;2023-03-16T20:54:25;7;4;
51052;PMS5003;37093;37.716;-122.060;2023-03-16T20:56:53;6;6;
51052;PMS5003;37093;37.716;-122.060;2023-03-16T20:59:22;8;5;
51052;PMS5003;37093;37.716;-122.060;2023-03-16T21:01:52;8;5;
51052;PMS5003;37093;37.716;-122.060;2023-03-16T21:04:21;16;7;
51052;PMS5003;37093;37.716;-122.060;2023-03-16T21:06:52;4;4;
51052;PMS5003;37093;37.716;-122.060;2023-03-16T21:09:21;7;7;
51052;PMS5003;37093;37.716;-122.060;2023-03-16T21:11:49;10;6;
51052;PMS5003;37093;37.716;-122.060;2023-03-16T21:14:20;8;5;
51052;PMS5003;37093;37.716;-122.060;2023-03-16T21:16:50;10;7;
51052;PMS5003;37093;37.716;-122.060;2023-03-16T21:19:20;8;6;
51052;PMS5003;37093;37.716;-122.060;2023-03-16T21:21:50;9;6;
51052;PMS5003;37093;37.716;-122.060;2023-03-16T21:24:18;5;5;
51052;PMS5003;37093;37.716;-122.060;2023-03-16T21:26:46;3;3;
51052;PMS5003;37093;37.716;-122.060;2023-03-16T21:29:16;9;5;
51052;PMS5003;37093;37.716;-122.060;2023-03-16T21:31:46;5;5;
51052;PMS5003;37093;37.716;-122.060;2023-03-16T21:34:19;7;4;
51052;PMS5003;37093;37.716;-122.060;2023-03-16T21:36:49;9;5;
51052;PMS5003;37093;37.716;-122.060;2023-03-16T21:39:18;6;6;
51052;PMS5003;37093;37.716;-122.060;2023-03-16T21:41:47;6;4;
51052;PMS5003;37093;37.716;-122.060;2023-03-16T21:44:16;6;4;
51052;PMS5003;37093;37.716;-122.060;2023-03-16T21:46:44;5;3;
51052;PMS5003;37093;37.716;-122.060;2023-03-16T21:49:12;7;3;
51052;PMS5003;37093;37.716;-122.060;2023-03-16T21:51:42;4;2;
51052;PMS5003;37093;37.716;-122.060;2023-03-16T21:54:11;6;2;
51052;PMS5003;37093;37.716;-122.060;2023-03-16T21:56:41;5;4;
51052;PMS5003;37093;37.716;-122.060;2023-03-16T21:59:10;4;4;
51052;PMS5003;37093;37.716;-122.060;2023-03-16T22:01:39;5;4;
51052;PMS5003;37093;37.716;-122.060;2023-03-16T22:04:09;3;2;
51052;PMS5003;37093;37.716;-122.060;2023-03-16T22:06:42;5;3;
51052;PMS5003;37093;37.716;-122.060;2023-03-16T22:09:14;5;4;
51052;PMS5003;37093;37.716;-122.060;2023-03-16T22:11:44;4;2;
51052;PMS5003;37093;37.716;-122.060;2023-03-16T22:14:13;8;6;
51052;PMS5003;37093;37.716;-122.060;2023-03-16T22:16:41;5;5;
51052;PMS5003;37093;37.716;-122.060;2023-03-16T22:19:10;6;6;
51052;PMS5003;37093;37.716;-122.060;2023-03-16T22:21:40;8;5;
51052;PMS5003;37093;37.716;-122.060;2023-03-16T22:24:12;7;4;
51052;PMS5003;37093;37.716;-122.060;2023-03-16T22:26:44;7;6;
51052;PMS5003;37093;37.716;-122.060;2023-03-16T22:29:18;6;4;
51052;PMS5003;37093;37.716;-122.060;2023-03-16T22:31:48;5;5;
51052;PMS5003;37093;37.716;-122.060;2023-03-16T22:34:22;8;5;
51052;PMS5003;37093;37.716;-122.060;2023-03-16T22:36:55;8;4;
51052;PMS5003;37093;37.716;-122.060;2023-03-16T22:39:25;11;8;
51052;PMS5003;37093;37.716;-122.060;2023-03-16T22:41:54;6;5;
51052;PMS5003;37093;37.716;-122.060;2023-03-16T22:44:23;9;6;
51052;PMS5003;37093;37.716;-122.060;2023-03-16T22:46:51;10;7;
51052;PMS5003;37093;37.716;-122.060;2023-03-16T22:49:21;9;5;
51052;PMS5003;37093;37.716;-122.060;2023-03-16T22:51:53;16;5;
51052;PMS5003;37093;37.716;-122.060;2023-03-16T22:54:23;8;5;
51052;PMS5003;37093;37.716;-122.060;2023-03-16T22:56:54;17;5;
51052;PMS5003;37093;37.716;-122.060;2023-03-16T22:59:22;10;7;
51052;PMS5003;37093;37.716;-122.060;2023-03-16T23:01:52;8;6;
51052;PMS5003;37093;37.716;-122.060;2023-03-16T23:04:21;10;6;
51052;PMS5003;37093;37.716;-122.060;2023-03-16T23:06:52;9;7;
51052;PMS5003;37093;37.716;-122.060;2023-03-16T23:09:20;16;5;
51052;PMS5003;37093;37.716;-122.060;2023-03-16T23:11:49;9;5;
51052;PMS5003;37093;37.716;-122.060;2023-03-16T23:14:19;5;4;
51052;PMS5003;37093;37.716;-122.060;2023-03-16T23:16:49;18;6;
51052;PMS5003;37093;37.716;-122.060;2023-03-16T23:19:22;5;5;
51052;PMS5003;37093;37.716;-122.060;2023-03-16T23:21:53;9;6;